createdAt,value
2022-09-16T00:04:20.564Z,3.10
2022-09-16T00:14:42.020Z,4.85
2022-09-16T00:25:03.694Z,3.00
2022-09-16T00:35:25.197Z,1.48
2022-09-16T00:45:55.960Z,3.63
2022-09-16T00:56:21.427Z,3.53
2022-09-16T01:06:43.252Z,3.72
2022-09-16T01:17:10.425Z,4.78
2022-09-16T01:27:45.883Z,3.78
2022-09-16T01:38:26.080Z,4.60
2022-09-16T01:49:02.706Z,4.80
2022-09-16T01:59:33.904Z,4.30
2022-09-16T02:10:04.720Z,4.97
2022-09-16T02:20:30.771Z,2.03
2022-09-16T02:30:56.875Z,4.18
2022-09-16T02:41:18.467Z,3.90
2022-09-16T02:52:00.719Z,4.37
2022-09-16T03:02:22.581Z,6.47
2022-09-16T03:23:26.766Z,2.95
2022-09-16T03:33:52.943Z,3.30
2022-09-16T03:44:14.647Z,3.60
2022-09-16T03:54:37.444Z,4.30
2022-09-16T04:04:58.908Z,4.00
2022-09-16T04:15:20.346Z,6.63
2022-09-16T04:25:41.975Z,3.73
2022-09-16T04:36:12.222Z,3.00
2022-09-16T04:46:33.966Z,2.38
2022-09-16T04:56:55.459Z,2.35
2022-09-16T05:07:16.922Z,4.67
2022-09-16T05:17:50.981Z,5.60
2022-09-16T05:28:12.926Z,5.00
2022-09-16T05:38:34.510Z,3.03
2022-09-16T05:48:56.704Z,4.17
2022-09-16T05:59:18.229Z,3.03
2022-09-16T06:09:39.654Z,2.77
2022-09-16T06:20:01.324Z,5.73
2022-09-16T06:30:22.791Z,6.43
2022-09-16T06:40:44.239Z,5.73
2022-09-16T06:51:10.140Z,5.50
2022-09-16T07:01:32.789Z,8.10
2022-09-16T07:11:55.130Z,6.45
2022-09-16T07:22:16.588Z,6.45
2022-09-16T07:32:38.434Z,5.93
2022-09-16T07:53:21.689Z,7.57
2022-09-16T08:03:46.167Z,8.10
2022-09-16T08:14:07.953Z,6.72
2022-09-16T08:24:29.456Z,7.53
2022-09-16T08:34:51.057Z,10.27
2022-09-16T08:55:53.612Z,9.90
2022-09-16T09:06:32.159Z,6.82
2022-09-16T09:17:06.470Z,8.07
2022-09-16T09:27:40.569Z,9.57
2022-09-16T09:38:17.555Z,9.82
2022-09-16T09:48:45.069Z,9.98
2022-09-16T09:59:28.133Z,11.95
2022-09-16T10:10:02.782Z,11.00
2022-09-16T10:20:29.366Z,7.93
2022-09-16T10:30:58.136Z,11.70
2022-09-16T10:41:25.905Z,7.10
2022-09-16T10:51:47.414Z,5.50
2022-09-16T11:02:29.019Z,7.55
2022-09-16T11:12:58.838Z,7.57
2022-09-16T11:23:55.732Z,10.40
2022-09-16T11:34:48.375Z,7.88
2022-09-16T11:45:43.053Z,7.00
2022-09-16T11:56:11.718Z,11.80
2022-09-16T12:18:17.179Z,5.97
2022-09-16T12:28:52.803Z,11.80
2022-09-16T12:39:14.330Z,8.48
2022-09-16T13:00:41.521Z,9.00
2022-09-16T13:22:26.522Z,15.10
2022-09-16T13:32:51.189Z,14.80
2022-09-16T13:43:15.802Z,16.10
2022-09-16T13:53:43.878Z,7.95
2022-09-16T14:04:19.256Z,14.93
2022-09-16T14:14:47.526Z,12.23
2022-09-16T14:25:32.440Z,9.63
2022-09-16T14:35:56.191Z,6.18
2022-09-16T14:46:17.742Z,4.88
2022-09-16T14:56:39.193Z,3.92
2022-09-16T15:07:14.794Z,6.40
2022-09-16T15:17:36.335Z,7.93
2022-09-16T15:28:06.086Z,5.88
2022-09-16T15:38:28.539Z,5.97
2022-09-16T15:48:55.733Z,10.10
2022-09-16T16:00:10.864Z,11.70
2022-09-16T16:10:36.153Z,10.57
2022-09-16T16:20:58.146Z,9.73
2022-09-16T16:31:19.773Z,8.75
2022-09-16T16:41:41.299Z,3.22
2022-09-16T16:52:05.157Z,3.60
2022-09-16T17:02:26.714Z,2.20
2022-09-16T17:12:48.217Z,3.67
2022-09-16T17:23:09.761Z,4.30
2022-09-16T17:33:31.229Z,2.60
2022-09-16T17:43:54.242Z,5.38
2022-09-16T17:54:16.560Z,4.80
2022-09-16T18:04:38.068Z,10.55
2022-09-16T18:14:59.657Z,8.17
2022-09-16T18:25:21.102Z,5.88
2022-09-16T18:35:42.567Z,5.40
2022-09-16T18:46:27.444Z,10.38
2022-09-16T18:56:48.924Z,5.05
2022-09-16T19:07:13.969Z,5.97
2022-09-16T19:17:35.471Z,3.83
2022-09-16T19:27:56.944Z,3.53
2022-09-16T19:38:18.435Z,4.50
2022-09-16T19:48:42.584Z,5.43
2022-09-16T19:59:04.171Z,5.70
2022-09-16T20:09:25.650Z,11.93
2022-09-16T20:19:47.412Z,8.43
2022-09-16T20:40:31.281Z,8.63
2022-09-16T20:50:52.864Z,10.80
2022-09-16T21:01:17.473Z,15.70
2022-09-16T21:11:44.419Z,20.85
2022-09-16T21:22:05.995Z,13.45
2022-09-16T21:32:27.433Z,18.83
2022-09-16T21:42:48.888Z,15.60
2022-09-16T21:53:10.832Z,14.77
2022-09-16T22:03:32.289Z,12.32
2022-09-16T22:13:55.455Z,11.07
2022-09-16T22:24:20.268Z,7.97
2022-09-16T22:34:41.963Z,18.38
2022-09-16T22:45:03.584Z,17.27
2022-09-16T22:55:25.039Z,15.77
2022-09-16T23:05:54.670Z,25.67
2022-09-16T23:16:21.122Z,20.08
2022-09-16T23:26:43.066Z,11.88
2022-09-16T23:37:04.577Z,21.05
2022-09-16T23:47:26.027Z,12.32
2022-09-16T23:57:47.497Z,16.63
